createdAt,value
2018-12-30T00:00:36.244Z,83.1
2018-12-30T00:01:37.947Z,82.8
2018-12-30T00:02:39.216Z,83
2018-12-30T00:03:41.249Z,82.9
2018-12-30T00:04:42.714Z,83
2018-12-30T00:05:44.036Z,83.4
2018-12-30T00:06:45.408Z,83.4
2018-12-30T00:07:45.740Z,83.4
2018-12-30T00:08:45.733Z,84
2018-12-30T00:09:46.625Z,84.2
2018-12-30T00:10:47.633Z,84.7
2018-12-30T00:11:47.601Z,84.7
2018-12-30T00:12:49.052Z,84.5
2018-12-30T00:13:50.027Z,84.8
2018-12-30T00:14:50.665Z,85.5
2018-12-30T00:15:51.449Z,85.9
2018-12-30T00:16:51.901Z,86.1
2018-12-30T00:17:52.300Z,86.4
2018-12-30T00:18:52.311Z,86.9
2018-12-30T00:19:52.377Z,86.8
2018-12-30T00:20:52.940Z,87.1
2018-12-30T00:21:52.927Z,87.6
2018-12-30T00:22:53.429Z,87
2018-12-30T00:23:53.429Z,87.2
2018-12-30T00:24:53.427Z,87.8
2018-12-30T00:25:53.424Z,88.1
2018-12-30T00:26:53.427Z,88.8
2018-12-30T00:27:53.427Z,88.3
2018-12-30T00:28:53.449Z,88.8
2018-12-30T00:29:54.299Z,88.7
2018-12-30T00:30:55.201Z,89.2
2018-12-30T00:31:55.203Z,90
2018-12-30T00:32:55.677Z,89.3
2018-12-30T00:33:55.712Z,89.8
2018-12-30T00:34:55.761Z,89.8
2018-12-30T00:35:55.761Z,90.1
2018-12-30T00:36:55.725Z,89.6
2018-12-30T00:37:56.341Z,89.7
2018-12-30T00:38:56.620Z,90.2
2018-12-30T00:39:56.655Z,90.4
2018-12-30T00:40:56.674Z,90.1
2018-12-30T00:41:56.639Z,90.1
2018-12-30T00:42:58.182Z,90.6
2018-12-30T00:43:58.163Z,90.4
2018-12-30T00:44:58.172Z,90.3
2018-12-30T00:45:58.181Z,90.3
2018-12-30T00:46:59.046Z,90.5
2018-12-30T00:47:59.817Z,90.7
2018-12-30T00:48:59.799Z,90.7
2018-12-30T00:49:59.822Z,90.7
2018-12-30T00:51:00.008Z,90.8
2018-12-30T00:52:00.007Z,91
2018-12-30T00:53:00.517Z,90.9
2018-12-30T00:54:00.550Z,91
2018-12-30T00:55:01.137Z,91
2018-12-30T00:56:01.129Z,90.7
2018-12-30T00:57:01.105Z,91.1
2018-12-30T00:58:01.101Z,91
2018-12-30T00:59:01.099Z,90.8
2018-12-30T01:00:01.103Z,90.9
2018-12-30T01:01:01.107Z,91
2018-12-30T01:02:01.081Z,90.9
2018-12-30T01:03:01.581Z,90.8
2018-12-30T01:04:02.350Z,90.9
2018-12-30T01:05:03.208Z,90.8
2018-12-30T01:06:03.204Z,90.9
2018-12-30T01:07:03.199Z,90.9
2018-12-30T01:08:03.220Z,90.8
2018-12-30T01:09:03.189Z,90.3
2018-12-30T01:10:03.143Z,90.2
2018-12-30T01:11:03.140Z,90.5
2018-12-30T01:12:04.077Z,90.6
2018-12-30T01:13:05.278Z,90.2
2018-12-30T01:14:05.296Z,90.1
2018-12-30T01:15:05.261Z,90.1
2018-12-30T01:16:05.242Z,89.7
2018-12-30T01:17:05.255Z,89.7
2018-12-30T01:18:05.228Z,89.6
2018-12-30T01:19:05.285Z,90
2018-12-30T01:20:05.303Z,90.2
2018-12-30T01:21:05.275Z,89.9
2018-12-30T01:22:05.281Z,90.1
2018-12-30T01:23:05.793Z,89.8
2018-12-30T01:24:05.801Z,89.8
2018-12-30T01:25:05.831Z,90
2018-12-30T01:26:05.843Z,90.2
2018-12-30T01:27:05.827Z,90
2018-12-30T01:28:05.809Z,90.3
2018-12-30T01:29:06.743Z,90.1
2018-12-30T01:30:07.463Z,90.5
2018-12-30T01:31:07.449Z,90.5
2018-12-30T01:32:07.431Z,90.6
2018-12-30T01:33:07.943Z,90.8
2018-12-30T01:34:07.939Z,90.6
2018-12-30T01:35:07.917Z,90.4
2018-12-30T01:36:07.897Z,90.8
2018-12-30T01:37:07.879Z,90.9
2018-12-30T01:38:08.480Z,90.7
2018-12-30T01:39:09.357Z,90.7
2018-12-30T01:40:09.438Z,90.8
2018-12-30T01:41:09.399Z,91.3
2018-12-30T01:42:09.371Z,91.2
2018-12-30T01:43:11.032Z,91.4
2018-12-30T01:44:11.023Z,91.4
2018-12-30T01:45:10.993Z,91.6
2018-12-30T01:46:10.957Z,91.7
2018-12-30T01:47:10.999Z,91.5
2018-12-30T01:48:11.287Z,91.5
2018-12-30T01:49:11.281Z,91.4
2018-12-30T01:50:11.330Z,91.6
2018-12-30T01:51:11.319Z,91.7
2018-12-30T01:52:11.277Z,91.6
2018-12-30T01:53:11.776Z,91.6
2018-12-30T01:54:11.784Z,91.6
2018-12-30T01:55:12.537Z,91.7
2018-12-30T01:56:13.129Z,91.6
2018-12-30T01:57:13.116Z,91.6
2018-12-30T01:58:13.137Z,91.5
2018-12-30T01:59:13.131Z,91.6
2018-12-30T02:00:13.149Z,91.6
2018-12-30T02:01:13.145Z,91.5
2018-12-30T02:02:13.139Z,91.3
2018-12-30T02:03:13.605Z,91.4
2018-12-30T02:04:14.527Z,91.7
2018-12-30T02:05:15.327Z,91.2
2018-12-30T02:06:15.244Z,91.2
2018-12-30T02:07:15.285Z,91.1
2018-12-30T02:08:15.250Z,91.4
2018-12-30T02:09:15.202Z,91.2
2018-12-30T02:10:15.163Z,91.2
2018-12-30T02:11:15.087Z,91.1
2018-12-30T02:12:15.021Z,91.3
2018-12-30T02:13:16.296Z,91.2
2018-12-30T02:14:17.150Z,91.3
2018-12-30T02:15:17.117Z,91.3
2018-12-30T02:16:17.062Z,91.4
2018-12-30T02:17:17.009Z,91
2018-12-30T02:18:16.948Z,90.9
2018-12-30T02:19:16.915Z,90.9
2018-12-30T02:20:16.865Z,90.9
2018-12-30T02:21:16.791Z,90.8
2018-12-30T02:22:17.809Z,90.6
2018-12-30T02:23:19.309Z,90.4
2018-12-30T02:24:19.259Z,90.3
2018-12-30T02:25:19.223Z,90.4
2018-12-30T02:26:19.168Z,90.3
2018-12-30T02:27:19.154Z,90.3
2018-12-30T02:28:19.115Z,90.3
2018-12-30T02:29:19.051Z,90.4
2018-12-30T02:30:18.985Z,90.5
2018-12-30T02:31:19.835Z,90.4
2018-12-30T02:32:20.976Z,90.3
2018-12-30T02:33:21.552Z,90.4
2018-12-30T02:34:21.606Z,90.5
2018-12-30T02:35:21.578Z,90.6
2018-12-30T02:36:21.576Z,90.5
2018-12-30T02:37:21.564Z,90.5
2018-12-30T02:38:21.528Z,90.4
2018-12-30T02:39:21.509Z,90.3
2018-12-30T02:40:22.293Z,90.7
2018-12-30T02:41:23.053Z,90.5
2018-12-30T02:42:22.987Z,90.9
2018-12-30T02:43:23.367Z,90.6
2018-12-30T02:44:23.301Z,90.7
2018-12-30T02:45:23.237Z,90.8
2018-12-30T02:46:23.181Z,90.6
2018-12-30T02:47:23.151Z,90.8
2018-12-30T02:48:23.114Z,90.7
2018-12-30T02:49:23.781Z,90.7
2018-12-30T02:50:24.310Z,90.6
2018-12-30T02:51:24.328Z,90.5
2018-12-30T02:52:24.277Z,90.7
2018-12-30T02:53:24.721Z,90.7
2018-12-30T02:54:24.655Z,90.8
2018-12-30T02:55:24.620Z,90.9
2018-12-30T02:56:24.572Z,90.8
2018-12-30T02:57:24.520Z,90.7
2018-12-30T02:58:25.139Z,90.8
2018-12-30T02:59:25.673Z,90.6
2018-12-30T03:00:25.654Z,90.8
2018-12-30T03:01:25.588Z,90.9
2018-12-30T03:02:25.554Z,91
2018-12-30T03:03:25.938Z,90.7
2018-12-30T03:04:25.988Z,90.8
2018-12-30T03:05:26.013Z,90.8
2018-12-30T03:06:25.934Z,90.9
2018-12-30T03:07:25.977Z,90.8
2018-12-30T03:08:25.909Z,90.7
2018-12-30T03:09:25.866Z,90.7
2018-12-30T03:10:25.812Z,90.8
2018-12-30T03:11:25.714Z,90.8
2018-12-30T03:12:25.630Z,90.9
2018-12-30T03:13:27.149Z,90.8
2018-12-30T03:14:27.051Z,90.9
2018-12-30T03:15:26.981Z,91
2018-12-30T03:16:26.916Z,90.8
2018-12-30T03:17:27.771Z,90.9
2018-12-30T03:18:28.576Z,90.9
2018-12-30T03:19:28.495Z,90.9
2018-12-30T03:20:28.418Z,91.1
2018-12-30T03:21:28.340Z,91
2018-12-30T03:22:28.238Z,90.9
2018-12-30T03:23:28.622Z,90.9
2018-12-30T03:24:28.518Z,90.9
2018-12-30T03:25:28.411Z,91.1
2018-12-30T03:26:28.300Z,90.9
2018-12-30T03:27:28.200Z,90.9
2018-12-30T03:28:28.104Z,90.9
2018-12-30T03:29:27.989Z,90.9
2018-12-30T03:30:28.051Z,90.9
2018-12-30T03:31:27.964Z,90.9
2018-12-30T03:32:27.894Z,90.9
2018-12-30T03:33:28.455Z,90.9
2018-12-30T03:34:28.378Z,90.9
2018-12-30T03:35:28.262Z,90.9
2018-12-30T03:36:28.160Z,91
2018-12-30T03:37:28.050Z,90.8
2018-12-30T03:38:27.947Z,90.8
2018-12-30T03:39:27.853Z,90.7
2018-12-30T03:40:27.754Z,90.5
2018-12-30T03:41:27.650Z,90.5
2018-12-30T03:42:27.650Z,90.5
2018-12-30T03:43:27.986Z,90.2
2018-12-30T03:44:27.916Z,90.1
2018-12-30T03:45:27.855Z,90.1
2018-12-30T03:46:27.738Z,89.8
2018-12-30T03:47:27.617Z,89.6
2018-12-30T03:48:27.526Z,89.8
2018-12-30T03:49:27.418Z,89.8
2018-12-30T03:50:27.319Z,89.6
2018-12-30T03:51:27.242Z,89.8
2018-12-30T03:52:27.122Z,89.8
2018-12-30T03:53:27.449Z,89.2
2018-12-30T03:54:27.349Z,90
2018-12-30T03:55:27.252Z,90
2018-12-30T03:56:27.183Z,89.9
2018-12-30T03:57:27.070Z,90
2018-12-30T03:58:26.956Z,90
2018-12-30T03:59:26.849Z,90
2018-12-30T04:00:26.759Z,90.1
2018-12-30T04:01:26.653Z,90.1
2018-12-30T04:02:26.542Z,90.3
2018-12-30T04:03:26.957Z,90.2
2018-12-30T04:04:26.855Z,90.2
2018-12-30T04:05:26.847Z,90.3
2018-12-30T04:06:26.775Z,90.4
2018-12-30T04:07:26.701Z,90.3
2018-12-30T04:08:26.578Z,90.2
2018-12-30T04:09:26.495Z,90.5
2018-12-30T04:10:26.389Z,90.3
2018-12-30T04:11:26.293Z,90
2018-12-30T04:12:26.196Z,90.3
2018-12-30T04:13:26.543Z,90.1
2018-12-30T04:14:26.570Z,90.1
2018-12-30T04:15:26.454Z,90
2018-12-30T04:16:26.374Z,90
2018-12-30T04:17:26.269Z,90
2018-12-30T04:18:26.201Z,90.1
2018-12-30T04:19:26.113Z,90.1
2018-12-30T04:20:25.988Z,90.1
2018-12-30T04:21:25.919Z,90.3
2018-12-30T04:22:25.811Z,90.3
2018-12-30T04:23:26.131Z,90.4
2018-12-30T04:24:26.081Z,90.4
2018-12-30T04:25:25.999Z,90.5
2018-12-30T04:26:25.897Z,90.3
2018-12-30T04:27:25.986Z,90.5
2018-12-30T04:28:25.879Z,90.4
2018-12-30T04:29:25.809Z,90.4
2018-12-30T04:30:25.714Z,90.3
2018-12-30T04:31:25.588Z,90.2
2018-12-30T04:32:25.471Z,90
2018-12-30T04:33:25.789Z,90
2018-12-30T04:34:25.705Z,90
2018-12-30T04:35:25.608Z,89.8
2018-12-30T04:36:25.495Z,90
2018-12-30T04:37:25.595Z,89.9
2018-12-30T04:38:25.498Z,89.9
2018-12-30T04:39:25.533Z,90
2018-12-30T04:40:25.449Z,90.3
2018-12-30T04:41:25.334Z,90.1
2018-12-30T04:42:25.214Z,90.2
2018-12-30T04:43:25.544Z,90.4
2018-12-30T04:44:25.477Z,90.3
2018-12-30T04:45:25.431Z,90.4
2018-12-30T04:46:25.472Z,90.4
2018-12-30T04:47:25.568Z,90.4
2018-12-30T04:48:25.488Z,90.5
2018-12-30T04:49:25.408Z,90.4
2018-12-30T04:50:25.307Z,90.5
2018-12-30T04:51:25.240Z,90.5
2018-12-30T04:52:26.746Z,90.6
2018-12-30T04:53:27.098Z,90.4
2018-12-30T04:54:26.997Z,90.6
2018-12-30T04:55:26.900Z,90.7
2018-12-30T04:56:26.824Z,90.7
2018-12-30T04:57:26.705Z,90.7
2018-12-30T04:58:26.584Z,90.7
2018-12-30T04:59:26.471Z,90.7
2018-12-30T05:00:26.367Z,90.8
2018-12-30T05:01:26.277Z,90.8
2018-12-30T05:02:26.184Z,90.8
2018-12-30T05:03:26.624Z,90.8
2018-12-30T05:04:26.516Z,90.8
2018-12-30T05:05:26.413Z,90.9
2018-12-30T05:06:26.320Z,90.9
2018-12-30T05:07:26.239Z,90.9
2018-12-30T05:08:26.127Z,90.7
2018-12-30T05:09:26.092Z,91
2018-12-30T05:10:26.054Z,90.9
2018-12-30T05:11:25.970Z,91.3
2018-12-30T05:12:25.884Z,90.9
2018-12-30T05:13:26.234Z,91
2018-12-30T05:14:26.130Z,90.9
2018-12-30T05:15:26.015Z,90.9
2018-12-30T05:16:25.903Z,90.9
2018-12-30T05:17:25.932Z,91
2018-12-30T05:18:25.833Z,90.8
2018-12-30T05:19:25.768Z,90.9
2018-12-30T05:20:25.644Z,90.9
2018-12-30T05:21:25.550Z,90.8
2018-12-30T05:22:33.611Z,90.9
2018-12-30T05:23:34.473Z,90.9
2018-12-30T05:24:34.352Z,91
2018-12-30T05:25:34.245Z,91.1
2018-12-30T05:26:34.128Z,91.3
2018-12-30T05:27:34.010Z,91.3
2018-12-30T05:28:33.915Z,91.2
2018-12-30T05:29:33.842Z,91.2
2018-12-30T05:30:33.829Z,91.3
2018-12-30T05:31:33.726Z,91.1
2018-12-30T05:32:33.620Z,91.1
2018-12-30T05:33:34.031Z,91.1
2018-12-30T05:34:33.919Z,91.2
2018-12-30T05:35:33.782Z,91.2
2018-12-30T05:36:33.673Z,91.1
2018-12-30T05:37:33.553Z,91.2
2018-12-30T05:38:33.464Z,91.1
2018-12-30T05:39:33.346Z,91.1
2018-12-30T05:40:33.226Z,91.2
2018-12-30T05:41:33.123Z,91.2
2018-12-30T05:42:33.107Z,91.1
2018-12-30T05:43:33.465Z,91.2
2018-12-30T05:44:33.357Z,91.1
2018-12-30T05:45:33.265Z,91.1
2018-12-30T05:46:33.153Z,91.1
2018-12-30T05:47:33.055Z,91
2018-12-30T05:48:32.968Z,91.1
2018-12-30T05:49:32.873Z,91.1
2018-12-30T05:50:32.853Z,91
2018-12-30T05:51:32.738Z,91
2018-12-30T05:52:32.614Z,90.9
2018-12-30T05:53:32.898Z,91
2018-12-30T05:54:32.812Z,90.9
2018-12-30T05:55:32.708Z,91
2018-12-30T05:56:32.730Z,91.1
2018-12-30T05:57:32.610Z,91.4
2018-12-30T05:58:32.509Z,91
2018-12-30T05:59:32.414Z,91
2018-12-30T06:00:32.316Z,91.1
2018-12-30T06:01:32.206Z,91.1
2018-12-30T06:02:32.128Z,91.1
2018-12-30T06:03:32.448Z,91.1
2018-12-30T06:04:32.320Z,91.1
2018-12-30T06:05:32.232Z,91.1
2018-12-30T06:06:32.123Z,91.1
2018-12-30T06:07:32.020Z,91
2018-12-30T06:08:31.904Z,91
2018-12-30T06:09:31.784Z,91
2018-12-30T06:10:31.667Z,90.9
2018-12-30T06:11:31.562Z,91
2018-12-30T06:12:31.450Z,91
2018-12-30T06:13:31.780Z,91
2018-12-30T06:14:31.694Z,91
2018-12-30T06:15:31.590Z,90.8
2018-12-30T06:16:31.491Z,90.8
2018-12-30T06:17:31.396Z,90.8
2018-12-30T06:18:31.280Z,90.9
2018-12-30T06:19:31.246Z,90.9
2018-12-30T06:20:31.138Z,90.9
2018-12-30T06:21:31.043Z,90.8
2018-12-30T06:22:30.912Z,90.9
2018-12-30T06:23:31.236Z,90.9
2018-12-30T06:24:31.120Z,91.1
2018-12-30T06:25:31.019Z,91
2018-12-30T06:26:30.920Z,91
2018-12-30T06:27:30.793Z,91
2018-12-30T06:28:30.684Z,90.9
2018-12-30T06:29:30.576Z,91
2018-12-30T06:30:30.465Z,90.9
2018-12-30T06:31:30.374Z,90.9
2018-12-30T06:32:30.244Z,91
2018-12-30T06:33:30.534Z,91
2018-12-30T06:34:30.438Z,91
2018-12-30T06:35:30.338Z,91
2018-12-30T06:36:30.243Z,91
2018-12-30T06:37:30.138Z,91
2018-12-30T06:38:30.016Z,91
2018-12-30T06:39:29.961Z,91.1
2018-12-30T06:40:29.842Z,91.1
2018-12-30T06:41:29.752Z,91.1
2018-12-30T06:42:29.640Z,91
2018-12-30T06:43:29.950Z,91
2018-12-30T06:44:29.834Z,91.1
2018-12-30T06:45:29.714Z,90.9
2018-12-30T06:46:29.639Z,91
2018-12-30T06:47:29.564Z,90.9
2018-12-30T06:48:29.458Z,91
2018-12-30T06:49:29.341Z,90.9
2018-12-30T06:50:29.254Z,91.1
2018-12-30T06:51:29.188Z,91.1
2018-12-30T06:52:29.064Z,91.1
2018-12-30T06:53:29.488Z,91.1
2018-12-30T06:54:29.368Z,91.1
2018-12-30T06:55:29.243Z,91.2
2018-12-30T06:56:29.124Z,91.2
2018-12-30T06:57:28.997Z,91.1
2018-12-30T06:58:28.893Z,91.1
2018-12-30T06:59:28.788Z,91.2
2018-12-30T07:00:28.678Z,91.3
2018-12-30T07:01:28.570Z,91.3
2018-12-30T07:02:28.456Z,91.3
2018-12-30T07:03:28.786Z,91.4
2018-12-30T07:04:28.677Z,91.4
2018-12-30T07:05:28.578Z,91.5
2018-12-30T07:06:28.442Z,91.4
2018-12-30T07:07:28.327Z,91.4
2018-12-30T07:08:28.227Z,91.4
2018-12-30T07:09:28.120Z,91.4
2018-12-30T07:10:28.020Z,91.4
2018-12-30T07:11:27.908Z,91.4
2018-12-30T07:12:27.803Z,91.5
2018-12-30T07:13:28.125Z,91.5
2018-12-30T07:14:28.014Z,91.7
2018-12-30T07:15:27.895Z,91.4
2018-12-30T07:16:27.788Z,91.3
2018-12-30T07:17:27.690Z,91.4
2018-12-30T07:18:27.632Z,91.7
2018-12-30T07:19:27.514Z,91.4
2018-12-30T07:20:27.414Z,91.4
2018-12-30T07:21:27.379Z,91.4
2018-12-30T07:22:27.266Z,91.5
2018-12-30T07:23:36.197Z,91.4
2018-12-30T07:24:36.177Z,91.4
2018-12-30T07:25:36.063Z,91.5
2018-12-30T07:26:35.943Z,91.3
2018-12-30T07:27:35.831Z,91.3
2018-12-30T07:28:35.703Z,91.4
2018-12-30T07:29:35.599Z,91.2
2018-12-30T07:30:35.508Z,91.2
2018-12-30T07:31:35.418Z,91.2
2018-12-30T07:32:35.398Z,91.2
2018-12-30T07:33:35.786Z,91.1
2018-12-30T07:34:35.677Z,91.2
2018-12-30T07:35:35.633Z,91.3
2018-12-30T07:36:35.539Z,91.3
2018-12-30T07:37:35.431Z,91.1
2018-12-30T07:38:35.324Z,91.1
2018-12-30T07:39:35.219Z,90.9
2018-12-30T07:40:35.129Z,90.5
2018-12-30T07:41:35.009Z,90.8
2018-12-30T07:42:34.907Z,90.7
2018-12-30T07:43:35.233Z,90.5
2018-12-30T07:44:35.197Z,90.4
2018-12-30T07:45:35.089Z,90.4
2018-12-30T07:46:34.999Z,90.4
2018-12-30T07:47:34.913Z,90.3
2018-12-30T07:48:34.814Z,90.3
2018-12-30T07:49:34.695Z,90.3
2018-12-30T07:50:34.579Z,90.4
2018-12-30T07:51:34.476Z,90.4
2018-12-30T07:52:34.345Z,90.5
2018-12-30T07:53:34.669Z,90.5
2018-12-30T07:54:34.571Z,90.6
2018-12-30T07:55:34.476Z,90.7
2018-12-30T07:56:34.382Z,90.7
2018-12-30T07:57:34.257Z,90.6
2018-12-30T07:58:34.135Z,90.5
2018-12-30T07:59:34.027Z,90.6
2018-12-30T08:00:33.925Z,90.5
2018-12-30T08:01:33.903Z,90.5
2018-12-30T08:02:33.777Z,90.4
2018-12-30T08:03:34.073Z,90
2018-12-30T08:04:33.958Z,90.2
2018-12-30T08:05:33.863Z,90.3
2018-12-30T08:06:33.749Z,90.2
2018-12-30T08:07:33.758Z,90
2018-12-30T08:08:33.646Z,90
2018-12-30T08:09:33.530Z,90.1
2018-12-30T08:10:33.424Z,90.1
2018-12-30T08:11:33.326Z,90
2018-12-30T08:12:33.207Z,90.2
2018-12-30T08:13:33.543Z,90.2
2018-12-30T08:14:33.458Z,90.4
2018-12-30T08:15:33.344Z,90.5
2018-12-30T08:16:33.224Z,90.5
2018-12-30T08:17:33.110Z,90.5
2018-12-30T08:18:33.007Z,90.4
2018-12-30T08:19:32.900Z,90.5
2018-12-30T08:20:32.798Z,90.5
2018-12-30T08:21:32.674Z,90.6
2018-12-30T08:22:32.559Z,90.6
2018-12-30T08:23:32.910Z,90.7
2018-12-30T08:24:32.814Z,90.7
2018-12-30T08:25:32.722Z,90.6
2018-12-30T08:26:32.610Z,90.7
2018-12-30T08:27:32.487Z,90.7
2018-12-30T08:28:32.400Z,90.7
2018-12-30T08:29:32.294Z,90.9
2018-12-30T08:30:32.200Z,90.8
2018-12-30T08:31:32.080Z,90.8
2018-12-30T08:32:31.987Z,90.8
2018-12-30T08:33:32.305Z,90.9
2018-12-30T08:34:32.197Z,91
2018-12-30T08:35:32.092Z,91
2018-12-30T08:36:31.986Z,90.9
2018-12-30T08:37:31.870Z,91.3
2018-12-30T08:38:31.757Z,90.8
2018-12-30T08:39:31.640Z,90.9
2018-12-30T08:40:31.522Z,91.2
2018-12-30T08:41:31.428Z,90.8
2018-12-30T08:42:31.311Z,90.9
2018-12-30T08:43:31.673Z,90.9
2018-12-30T08:44:31.560Z,90.8
2018-12-30T08:45:31.461Z,90.8
2018-12-30T08:46:31.355Z,90.9
2018-12-30T08:47:31.236Z,91
2018-12-30T08:48:31.190Z,91
2018-12-30T08:49:31.092Z,91
2018-12-30T08:50:30.990Z,91
2018-12-30T08:51:30.972Z,91
2018-12-30T08:52:30.949Z,91.1
2018-12-30T08:53:31.426Z,91.2
2018-12-30T08:54:31.451Z,91.3
2018-12-30T08:55:31.355Z,91.3
2018-12-30T08:56:31.268Z,91.2
2018-12-30T08:57:31.190Z,91.1
2018-12-30T08:58:31.090Z,91.1
2018-12-30T08:59:31.097Z,90.9
2018-12-30T09:00:30.996Z,90.8
2018-12-30T09:01:30.951Z,90.8
2018-12-30T09:02:30.923Z,90.6
2018-12-30T09:03:31.241Z,90.6
2018-12-30T09:04:31.136Z,90.4
2018-12-30T09:05:31.117Z,90.3
2018-12-30T09:06:31.115Z,90.1
2018-12-30T09:07:31.178Z,90.2
2018-12-30T09:08:31.291Z,90.2
2018-12-30T09:09:31.267Z,90.5
2018-12-30T09:10:31.175Z,90.1
2018-12-30T09:11:31.066Z,90.2
2018-12-30T09:12:30.977Z,90.3
2018-12-30T09:13:31.295Z,90.3
2018-12-30T09:14:31.195Z,90.3
2018-12-30T09:15:31.091Z,90.4
2018-12-30T09:16:30.969Z,90.3
2018-12-30T09:17:30.859Z,90.4
2018-12-30T09:18:30.733Z,90.3
2018-12-30T09:19:30.621Z,90.4
2018-12-30T09:20:30.537Z,90.3
2018-12-30T09:21:30.419Z,90.4
2018-12-30T09:22:30.311Z,90.4
2018-12-30T09:23:38.239Z,90.5
2018-12-30T09:24:38.137Z,90.5
2018-12-30T09:25:38.060Z,90.6
2018-12-30T09:26:37.955Z,90.6
2018-12-30T09:27:37.859Z,90.6
2018-12-30T09:28:37.757Z,90.6
2018-12-30T09:29:37.636Z,90.6
2018-12-30T09:30:37.531Z,90.7
2018-12-30T09:31:37.476Z,90.6
2018-12-30T09:32:37.367Z,90.7
2018-12-30T09:33:37.816Z,90.6
2018-12-30T09:34:37.692Z,90.7
2018-12-30T09:35:37.587Z,90.7
2018-12-30T09:36:37.501Z,90.7
2018-12-30T09:37:37.414Z,90.9
2018-12-30T09:38:37.297Z,90.8
2018-12-30T09:39:37.176Z,90.7
2018-12-30T09:40:37.062Z,90.8
2018-12-30T09:41:36.951Z,90.8
2018-12-30T09:42:36.863Z,90.7
2018-12-30T09:43:37.192Z,90.7
2018-12-30T09:44:37.074Z,91
2018-12-30T09:45:36.952Z,90.7
2018-12-30T09:46:36.846Z,90.7
2018-12-30T09:47:36.746Z,90.8
2018-12-30T09:48:36.729Z,90.7
2018-12-30T09:49:36.698Z,90.8
2018-12-30T09:50:36.616Z,90.7
2018-12-30T09:51:36.500Z,90.7
2018-12-30T09:52:36.389Z,90.7
2018-12-30T09:53:36.744Z,90.7
2018-12-30T09:54:36.634Z,90.8
2018-12-30T09:55:36.506Z,90.8
2018-12-30T09:56:36.396Z,90.7
2018-12-30T09:57:36.288Z,90.7
2018-12-30T09:58:36.222Z,90.8
2018-12-30T09:59:36.110Z,90.7
2018-12-30T10:00:35.988Z,90.7
2018-12-30T10:01:35.906Z,90.8
2018-12-30T10:02:35.799Z,90.7
2018-12-30T10:03:36.230Z,90.7
2018-12-30T10:04:36.132Z,90.7
2018-12-30T10:05:36.027Z,90.7
2018-12-30T10:06:35.926Z,90.8
2018-12-30T10:07:35.820Z,90.8
2018-12-30T10:08:35.730Z,90.8
2018-12-30T10:09:35.614Z,90.7
2018-12-30T10:10:35.511Z,90.7
2018-12-30T10:11:35.400Z,90.7
2018-12-30T10:12:35.301Z,90.6
2018-12-30T10:13:35.639Z,90.5
2018-12-30T10:14:35.518Z,90.5
2018-12-30T10:15:35.472Z,90.6
2018-12-30T10:16:35.379Z,90.6
2018-12-30T10:17:35.332Z,90.6
2018-12-30T10:18:35.218Z,90.6
2018-12-30T10:19:35.134Z,90.7
2018-12-30T10:20:35.023Z,90.7
2018-12-30T10:21:34.934Z,90.6
2018-12-30T10:22:34.872Z,90.5
2018-12-30T10:23:35.231Z,90.6
2018-12-30T10:24:35.129Z,90.7
2018-12-30T10:25:35.094Z,90.7
2018-12-30T10:26:35.069Z,90.6
2018-12-30T10:27:34.948Z,90.4
2018-12-30T10:28:34.860Z,90.4
2018-12-30T10:29:34.762Z,90.3
2018-12-30T10:30:34.691Z,90.2
2018-12-30T10:31:34.658Z,90.1
2018-12-30T10:32:34.548Z,90.1
2018-12-30T10:33:34.905Z,89.8
2018-12-30T10:34:34.856Z,89.4
2018-12-30T10:35:34.773Z,89.2
2018-12-30T10:36:34.673Z,89.1
2018-12-30T10:37:34.642Z,89.1
2018-12-30T10:38:34.536Z,89
2018-12-30T10:39:34.428Z,88.6
2018-12-30T10:40:34.369Z,89.3
2018-12-30T10:41:34.268Z,88.3
2018-12-30T10:42:34.160Z,88.2
2018-12-30T10:43:34.466Z,88.2
2018-12-30T10:44:34.388Z,88.2
2018-12-30T10:45:34.282Z,88.1
2018-12-30T10:46:34.194Z,88
2018-12-30T10:47:34.101Z,87.6
2018-12-30T10:48:33.982Z,87.6
2018-12-30T10:49:33.862Z,87.6
2018-12-30T10:50:33.782Z,87.5
2018-12-30T10:51:33.688Z,87.6
2018-12-30T10:52:33.590Z,87.4
2018-12-30T10:53:33.865Z,87.2
2018-12-30T10:54:33.766Z,87.3
2018-12-30T10:55:33.760Z,87.3
2018-12-30T10:56:33.858Z,87.2
2018-12-30T10:57:33.746Z,87.2
2018-12-30T10:58:33.710Z,87.2
2018-12-30T10:59:33.590Z,87
2018-12-30T11:00:33.464Z,87.2
2018-12-30T11:01:33.356Z,87.5
2018-12-30T11:02:33.262Z,87.6
2018-12-30T11:03:33.587Z,87.9
2018-12-30T11:04:33.484Z,88.2
2018-12-30T11:05:33.382Z,88.4
2018-12-30T11:06:33.294Z,88.6
2018-12-30T11:07:33.206Z,89.2
2018-12-30T11:08:33.107Z,89.2
2018-12-30T11:09:33.142Z,89.3
2018-12-30T11:10:33.034Z,89.6
2018-12-30T11:11:32.951Z,89.5
2018-12-30T11:12:32.886Z,89.5
2018-12-30T11:13:33.243Z,89.7
2018-12-30T11:14:33.150Z,89.7
2018-12-30T11:15:33.043Z,89.3
2018-12-30T11:16:32.953Z,89
2018-12-30T11:17:32.855Z,89.2
2018-12-30T11:18:32.789Z,89.2
2018-12-30T11:19:32.709Z,89.4
2018-12-30T11:20:32.615Z,89.3
2018-12-30T11:21:32.506Z,89.3
2018-12-30T11:22:32.446Z,89.3
2018-12-30T11:23:32.779Z,89.5
2018-12-30T11:24:33.137Z,89.6
2018-12-30T11:25:33.031Z,89.5
2018-12-30T11:26:32.919Z,89.3
2018-12-30T11:27:32.802Z,89.5
2018-12-30T11:28:32.712Z,89.6
2018-12-30T11:29:32.613Z,89.6
2018-12-30T11:30:32.505Z,89.5
2018-12-30T11:31:32.407Z,89.6
2018-12-30T11:32:32.303Z,89.6
2018-12-30T11:33:32.639Z,89.6
2018-12-30T11:34:32.540Z,89.7
2018-12-30T11:35:32.458Z,89.8
2018-12-30T11:36:32.358Z,89.7
2018-12-30T11:37:32.240Z,89.6
2018-12-30T11:38:32.139Z,89.8
2018-12-30T11:39:32.033Z,89.7
2018-12-30T11:40:31.905Z,89.8
2018-12-30T11:41:31.861Z,89.7
2018-12-30T11:42:31.763Z,90
2018-12-30T11:43:32.116Z,90
2018-12-30T11:44:32.022Z,90.1
2018-12-30T11:45:31.917Z,90
2018-12-30T11:46:31.811Z,90.4
2018-12-30T11:47:31.707Z,90
2018-12-30T11:48:31.586Z,90
2018-12-30T11:49:31.496Z,90
2018-12-30T11:50:31.373Z,89.8
2018-12-30T11:51:31.253Z,90.1
2018-12-30T11:52:31.163Z,90
2018-12-30T11:53:31.609Z,90
2018-12-30T11:54:31.533Z,90
2018-12-30T11:55:31.413Z,90
2018-12-30T11:56:31.330Z,89.8
2018-12-30T11:57:31.245Z,89.9
2018-12-30T11:58:31.161Z,89.8
2018-12-30T11:59:31.055Z,89.7
2018-12-30T12:00:30.967Z,89.7
2018-12-30T12:01:30.859Z,89.8
2018-12-30T12:02:30.773Z,90
2018-12-30T12:03:31.091Z,90
2018-12-30T12:04:31.009Z,90
2018-12-30T12:05:30.917Z,90.1
2018-12-30T12:06:30.807Z,90
2018-12-30T12:07:30.711Z,90
2018-12-30T12:08:30.598Z,90
2018-12-30T12:09:30.489Z,90
2018-12-30T12:10:30.419Z,90
2018-12-30T12:11:30.323Z,90
2018-12-30T12:12:30.217Z,90
2018-12-30T12:13:30.525Z,90
2018-12-30T12:14:30.416Z,90
2018-12-30T12:15:30.309Z,90
2018-12-30T12:16:30.225Z,89.9
2018-12-30T12:17:30.181Z,89.9
2018-12-30T12:18:30.081Z,89.6
2018-12-30T12:19:29.955Z,89.7
2018-12-30T12:20:29.837Z,89.9
2018-12-30T12:21:29.761Z,89.7
2018-12-30T12:22:29.637Z,89.8
2018-12-30T12:23:29.985Z,89.9
2018-12-30T12:24:29.881Z,90
2018-12-30T12:25:29.794Z,89.8
2018-12-30T12:26:31.408Z,89.8
2018-12-30T12:27:31.415Z,89.7
2018-12-30T12:28:31.319Z,89.7
2018-12-30T12:29:31.199Z,89.8
2018-12-30T12:30:31.191Z,89.6
2018-12-30T12:31:31.113Z,89.6
2018-12-30T12:32:31.003Z,89.5
2018-12-30T12:33:31.364Z,89.3
2018-12-30T12:34:31.277Z,89.6
2018-12-30T12:35:31.157Z,89.6
2018-12-30T12:36:31.076Z,89.7
2018-12-30T12:37:30.983Z,89.6
2018-12-30T12:38:30.881Z,89.7
2018-12-30T12:39:30.780Z,89.6
2018-12-30T12:40:30.680Z,89.8
2018-12-30T12:41:30.579Z,89.6
2018-12-30T12:42:30.474Z,89.6
2018-12-30T12:43:31.216Z,89.4
2018-12-30T12:44:31.434Z,89.7
2018-12-30T12:45:31.563Z,89.6
2018-12-30T12:46:31.608Z,89.6
2018-12-30T12:47:31.501Z,89.3
2018-12-30T12:48:31.740Z,89.4
2018-12-30T12:49:31.721Z,89.3
2018-12-30T12:50:31.993Z,89.3
2018-12-30T12:51:32.017Z,89.1
2018-12-30T12:52:32.433Z,89
2018-12-30T12:53:33.455Z,88.9
2018-12-30T12:54:33.448Z,89
2018-12-30T12:55:33.675Z,88.9
2018-12-30T12:56:33.621Z,89.2
2018-12-30T12:57:33.509Z,89
2018-12-30T12:58:33.457Z,89
2018-12-30T12:59:33.383Z,88.8
2018-12-30T13:00:33.357Z,89
2018-12-30T13:01:33.257Z,89.1
2018-12-30T13:02:33.168Z,89.1
2018-12-30T13:03:33.515Z,88.9
2018-12-30T13:04:33.425Z,88.9
2018-12-30T13:05:33.335Z,89.1
2018-12-30T13:06:33.227Z,88.8
2018-12-30T13:07:33.156Z,89
2018-12-30T13:08:33.029Z,89
2018-12-30T13:09:32.978Z,88.8
2018-12-30T13:10:32.870Z,88.8
2018-12-30T13:11:32.835Z,89
2018-12-30T13:12:32.755Z,89
2018-12-30T13:13:33.121Z,89
2018-12-30T13:14:33.015Z,89
2018-12-30T13:15:32.908Z,89
2018-12-30T13:16:32.819Z,89
2018-12-30T13:17:32.765Z,88.7
2018-12-30T13:18:32.669Z,88.5
2018-12-30T13:19:32.549Z,88.5
2018-12-30T13:20:32.461Z,88.3
2018-12-30T13:21:32.360Z,88.4
2018-12-30T13:22:32.239Z,88.4
2018-12-30T13:23:32.632Z,88.4
2018-12-30T13:24:40.808Z,89.2
2018-12-30T13:25:40.682Z,88.1
2018-12-30T13:26:40.576Z,88.1
2018-12-30T13:27:40.473Z,88.2